Time;durP1;ratioP1;P1;durP2;ratioP2;P2;SDS_P1;SDS_P2;PMS_P1;PMS_P2;Temp;Humidity;BMP_temperature;BMP_pressure;BME280_temperature;BME280_humidity;BME280_pressure;Samples;Min_cycle;Max_cycle;Signal;HPM_P1;HPM_P2
2021/12/18 00:00:37;;;;;;;13.18;9.50;;;;;;;;;;4819369;29;20074;-73
2021/12/18 00:03:06;;;;;;;15.38;11.60;;;;;;;;;;4833165;29;20107;-71
2021/12/18 00:05:34;;;;;;;16.77;11.77;;;;;;;;;;4806475;29;20050;-72
2021/12/18 00:08:01;;;;;;;16.92;11.82;;;;;;;;;;4819215;29;20046;-72
2021/12/18 00:10:29;;;;;;;17.65;12.80;;;;;;;;;;4818526;29;20050;-72
2021/12/18 00:12:56;;;;;;;15.23;10.95;;;;;;;;;;4818950;29;20095;-72
2021/12/18 00:15:25;;;;;;;16.35;11.65;;;;;;;;;;4819973;29;20069;-72
2021/12/18 00:17:52;;;;;;;16.88;11.45;;;;;;;;;;4820421;29;20077;-72
2021/12/18 00:20:20;;;;;;;17.73;12.23;;;;;;;;;;4819230;29;20294;-72
2021/12/18 00:22:48;;;;;;;17.33;12.65;;;;;;;;;;4819282;29;20482;-72
2021/12/18 00:25:15;;;;;;;19.45;12.10;;;;;;;;;;4820255;29;20125;-73
2021/12/18 00:27:43;;;;;;;18.73;12.18;;;;;;;;;;4818383;29;20047;-72
2021/12/18 00:30:14;;;;;;;18.33;12.90;;;;;;;;;;4818669;29;20137;-72
2021/12/18 00:32:41;;;;;;;17.15;13.00;;;;;;;;;;4833365;24;20058;-73
2021/12/18 00:35:09;;;;;;;17.45;12.70;;;;;;;;;;4818843;29;20081;-76
2021/12/18 00:37:36;;;;;;;17.52;12.38;;;;;;;;;;4819103;29;20411;-76
2021/12/18 00:40:09;;;;;;;18.00;12.20;;;;;;;;;;4819550;29;20129;-76
2021/12/18 00:45:11;;;;;;;17.30;11.95;;;;;;;;;;4819074;29;20096;-76
2021/12/18 00:47:39;;;;;;;15.25;11.35;;;;;;;;;;4819797;29;20094;-76
2021/12/18 00:50:09;;;;;;;22.35;12.50;;;;;;;;;;4803990;29;20085;-76
2021/12/18 00:52:37;;;;;;;16.08;11.93;;;;;;;;;;4802494;29;20077;-75
2021/12/18 00:55:05;;;;;;;15.35;11.60;;;;;;;;;;4816013;29;20070;-76
2021/12/18 00:57:32;;;;;;;16.90;11.77;;;;;;;;;;4822890;29;20055;-75
2021/12/18 01:00:02;;;;;;;19.10;13.23;;;;;;;;;;4822825;29;20074;-75
2021/12/18 01:02:30;;;;;;;17.33;12.35;;;;;;;;;;4822759;29;20476;-75
2021/12/18 01:04:58;;;;;;;17.88;12.98;;;;;;;;;;4823001;29;20038;-75
2021/12/18 01:07:25;;;;;;;17.60;13.18;;;;;;;;;;4823611;29;20137;-76
2021/12/18 01:12:26;;;;;;;19.70;12.45;;;;;;;;;;4821886;29;20141;-76
2021/12/18 01:23:12;;;;;;;16.65;11.65;;;;;;;;;;4821745;29;20141;-76
2021/12/18 01:25:40;;;;;;;18.30;12.82;;;;;;;;;;4822922;29;20069;-76
2021/12/18 01:28:08;;;;;;;16.17;12.17;;;;;;;;;;4823665;29;20132;-76
2021/12/18 01:30:35;;;;;;;18.42;13.48;;;;;;;;;;4822685;29;20267;-75
2021/12/18 01:33:03;;;;;;;18.83;13.25;;;;;;;;;;4822894;29;20051;-76
2021/12/18 01:35:30;;;;;;;19.17;12.70;;;;;;;;;;4823149;29;20445;-75
2021/12/18 01:37:58;;;;;;;17.13;13.02;;;;;;;;;;4820972;29;20416;-74
2021/12/18 01:40:26;;;;;;;19.58;12.98;;;;;;;;;;4822550;29;20046;-76
2021/12/18 01:51:59;;;;;;;18.92;13.00;;;;;;;;;;4783759;30;20053;-75
2021/12/18 01:54:27;;;;;;;19.17;12.25;;;;;;;;;;4782543;30;20085;-76
2021/12/18 01:56:54;;;;;;;18.90;13.35;;;;;;;;;;4783826;29;20126;-76
2021/12/18 01:59:39;;;;;;;18.45;13.23;;;;;;;;;;4783903;29;20061;-75
2021/12/18 02:02:06;;;;;;;18.40;11.77;;;;;;;;;;4783193;30;20124;-75
2021/12/18 02:04:34;;;;;;;16.92;12.57;;;;;;;;;;4783669;30;20191;-76
2021/12/18 02:07:03;;;;;;;16.48;11.93;;;;;;;;;;4784247;30;20147;-76
2021/12/18 02:09:51;;;;;;;24.75;14.88;;;;;;;;;;4782208;29;20150;-76
2021/12/18 02:12:20;;;;;;;19.90;13.52;;;;;;;;;;4783447;29;20532;-75
2021/12/18 02:22:49;;;;;;;22.65;14.23;;;;;;;;;;4810588;29;20133;-75
2021/12/18 02:25:26;;;;;;;17.50;11.52;;;;;;;;;;4827821;24;20137;-86
2021/12/18 02:28:24;;;;;;;19.65;13.50;;;;;;;;;;4836812;29;20110;-83
2021/12/18 02:31:13;;;;;;;19.15;11.55;;;;;;;;;;4838673;29;20046;-83
2021/12/18 02:33:54;;;;;;;20.03;12.53;;;;;;;;;;4813226;29;20055;-86
2021/12/18 02:43:17;;;;;;;20.05;13.30;;;;;;;;;;4790067;29;20055;-84
2021/12/18 02:45:59;;;;;;;19.17;12.25;;;;;;;;;;4789450;29;20043;-84
2021/12/18 02:48:47;;;;;;;18.73;12.48;;;;;;;;;;4781305;30;20122;-82
2021/12/18 02:51:42;;;;;;;16.98;11.48;;;;;;;;;;4783694;30;20066;-82
2021/12/18 02:54:30;;;;;;;19.40;12.60;;;;;;;;;;4770281;30;20055;-86
2021/12/18 02:57:38;;;;;;;19.95;12.55;;;;;;;;;;4773246;30;20132;-83
2021/12/18 03:04:26;;;;;;;18.92;11.40;;;;;;;;;;4801223;29;20042;-75
2021/12/18 03:06:59;;;;;;;17.85;11.63;;;;;;;;;;4796977;29;20150;-75
2021/12/18 03:23:26;;;;;;;20.15;11.48;;;;;;;;;;4784511;29;20146;-75
2021/12/18 03:25:59;;;;;;;20.25;12.20;;;;;;;;;;4785286;29;20136;-75
2021/12/18 03:28:27;;;;;;;19.17;12.48;;;;;;;;;;4795567;29;20146;-74
2021/12/18 03:30:55;;;;;;;20.58;13.35;;;;;;;;;;4792019;29;20045;-74
2021/12/18 03:33:26;;;;;;;17.83;12.35;;;;;;;;;;4804082;29;20104;-74
2021/12/18 03:35:54;;;;;;;17.58;11.75;;;;;;;;;;4789528;29;20043;-74
2021/12/18 03:38:21;;;;;;;23.20;12.63;;;;;;;;;;4778971;29;20047;-75
2021/12/18 03:40:49;;;;;;;17.60;11.68;;;;;;;;;;4784013;29;20129;-75
2021/12/18 03:43:16;;;;;;;18.30;11.95;;;;;;;;;;4783241;29;20146;-75
2021/12/18 03:45:44;;;;;;;18.35;12.13;;;;;;;;;;4783930;29;20130;-75
2021/12/18 03:48:11;;;;;;;20.92;13.18;;;;;;;;;;4783944;29;20051;-75
2021/12/18 03:50:39;;;;;;;19.42;13.15;;;;;;;;;;4788232;29;20043;-75
2021/12/18 03:53:06;;;;;;;21.35;13.35;;;;;;;;;;4787320;29;20098;-74
2021/12/18 03:55:34;;;;;;;18.17;12.38;;;;;;;;;;4782685;29;21351;-74
2021/12/18 03:58:01;;;;;;;19.40;12.38;;;;;;;;;;4798023;29;20035;-74
2021/12/18 04:00:29;;;;;;;24.20;12.95;;;;;;;;;;4781733;29;20061;-74
2021/12/18 04:02:56;;;;;;;18.52;12.38;;;;;;;;;;4796675;29;20055;-74
2021/12/18 04:05:23;;;;;;;18.15;12.82;;;;;;;;;;4780789;29;20104;-74
2021/12/18 04:07:51;;;;;;;19.42;12.88;;;;;;;;;;4789437;29;20134;-74
2021/12/18 04:10:19;;;;;;;19.92;12.80;;;;;;;;;;4783143;29;20134;-74
2021/12/18 04:12:48;;;;;;;17.88;12.82;;;;;;;;;;4781540;29;20244;-74
2021/12/18 04:15:16;;;;;;;18.65;13.13;;;;;;;;;;4782970;29;20074;-74
2021/12/18 04:17:43;;;;;;;19.38;13.20;;;;;;;;;;4784282;29;20039;-74
2021/12/18 04:20:11;;;;;;;21.05;13.52;;;;;;;;;;4786081;29;20074;-74
2021/12/18 04:22:38;;;;;;;18.67;12.02;;;;;;;;;;4786623;29;20252;-74
2021/12/18 04:25:06;;;;;;;17.63;12.57;;;;;;;;;;4799634;29;20054;-75
2021/12/18 04:27:34;;;;;;;16.95;12.30;;;;;;;;;;4781481;29;20071;-74
2021/12/18 04:30:01;;;;;;;16.58;12.00;;;;;;;;;;4781396;29;20074;-74
2021/12/18 04:32:29;;;;;;;14.90;10.95;;;;;;;;;;4779701;29;20155;-75
2021/12/18 04:34:56;;;;;;;16.90;11.60;;;;;;;;;;4783142;29;20059;-74
2021/12/18 04:37:24;;;;;;;17.77;12.60;;;;;;;;;;4780172;29;20048;-74
2021/12/18 04:39:52;;;;;;;16.25;11.88;;;;;;;;;;4776507;29;20104;-74
2021/12/18 04:42:20;;;;;;;17.33;11.80;;;;;;;;;;4783950;29;20052;-74
2021/12/18 04:44:48;;;;;;;16.50;11.65;;;;;;;;;;4776305;29;20074;-74
2021/12/18 04:47:15;;;;;;;17.33;11.75;;;;;;;;;;4781917;29;20069;-74
2021/12/18 04:49:43;;;;;;;15.23;11.15;;;;;;;;;;4782339;29;20082;-74
2021/12/18 04:52:10;;;;;;;15.95;10.90;;;;;;;;;;4781540;29;20284;-74
2021/12/18 04:54:37;;;;;;;17.40;12.70;;;;;;;;;;4780280;29;20100;-74
2021/12/18 04:57:05;;;;;;;17.02;12.27;;;;;;;;;;4786411;29;20066;-75
2021/12/18 04:59:32;;;;;;;17.48;12.48;;;;;;;;;;4788662;29;20093;-74
2021/12/18 05:02:00;;;;;;;14.93;11.48;;;;;;;;;;4780821;29;20059;-74
2021/12/18 05:04:27;;;;;;;17.75;11.90;;;;;;;;;;4783545;29;20054;-74
2021/12/18 05:06:55;;;;;;;19.33;13.45;;;;;;;;;;4797803;29;20053;-74
2021/12/18 05:09:22;;;;;;;15.65;11.82;;;;;;;;;;4781726;30;20071;-74
2021/12/18 05:11:50;;;;;;;16.48;12.48;;;;;;;;;;4779815;29;20067;-74
2021/12/18 05:14:18;;;;;;;17.20;11.35;;;;;;;;;;4785407;29;20137;-74
2021/12/18 05:16:47;;;;;;;17.23;13.05;;;;;;;;;;4785322;29;20187;-74
2021/12/18 05:19:15;;;;;;;16.45;11.80;;;;;;;;;;4768205;29;20063;-74
2021/12/18 05:21:42;;;;;;;19.23;12.98;;;;;;;;;;4780593;29;20035;-74
2021/12/18 05:24:10;;;;;;;18.25;12.50;;;;;;;;;;4781172;29;20105;-74
2021/12/18 05:26:37;;;;;;;16.73;11.70;;;;;;;;;;4790872;29;20134;-74
2021/12/18 05:29:05;;;;;;;21.55;12.60;;;;;;;;;;4788145;29;20420;-74
2021/12/18 05:31:32;;;;;;;15.23;11.23;;;;;;;;;;4787784;29;20501;-74
2021/12/18 05:34:02;;;;;;;18.83;12.93;;;;;;;;;;4781240;29;20471;-74
2021/12/18 05:36:34;;;;;;;14.90;11.60;;;;;;;;;;4800639;29;20036;-74
2021/12/18 05:39:03;;;;;;;18.83;12.70;;;;;;;;;;4781697;29;20074;-74
2021/12/18 05:41:31;;;;;;;18.35;12.48;;;;;;;;;;4782499;29;20154;-74
2021/12/18 05:43:58;;;;;;;16.33;11.57;;;;;;;;;;4788688;29;20055;-74
2021/12/18 05:46:26;;;;;;;18.38;12.18;;;;;;;;;;4790887;29;20063;-74
2021/12/18 05:48:54;;;;;;;21.42;12.73;;;;;;;;;;4790791;29;20083;-74
2021/12/18 05:51:24;;;;;;;15.57;11.30;;;;;;;;;;4811432;29;20142;-74
2021/12/18 05:53:51;;;;;;;17.00;12.32;;;;;;;;;;4791730;29;20067;-74
2021/12/18 05:56:19;;;;;;;16.10;11.57;;;;;;;;;;4795832;29;20078;-74
2021/12/18 05:58:47;;;;;;;15.30;11.07;;;;;;;;;;4768243;30;20132;-74
2021/12/18 06:01:14;;;;;;;14.43;11.07;;;;;;;;;;4785218;29;20577;-74
2021/12/18 06:03:42;;;;;;;15.02;10.82;;;;;;;;;;4798604;29;20082;-74
2021/12/18 06:06:10;;;;;;;15.52;11.48;;;;;;;;;;4787226;29;20095;-74
2021/12/18 06:08:38;;;;;;;12.85;9.70;;;;;;;;;;4790418;29;20055;-74
2021/12/18 06:11:10;;;;;;;15.90;11.57;;;;;;;;;;4788436;29;20047;-74
2021/12/18 06:13:38;;;;;;;14.65;10.07;;;;;;;;;;4814710;29;20085;-74
2021/12/18 06:16:06;;;;;;;16.77;11.57;;;;;;;;;;4799661;29;20051;-73
2021/12/18 06:18:34;;;;;;;18.45;13.48;;;;;;;;;;4816092;29;20137;-74
2021/12/18 06:21:02;;;;;;;16.25;11.55;;;;;;;;;;4800131;29;20153;-74
2021/12/18 06:23:30;;;;;;;16.08;11.52;;;;;;;;;;4805517;29;20142;-75
2021/12/18 06:25:57;;;;;;;21.27;14.20;;;;;;;;;;4773631;29;20055;-74
2021/12/18 06:28:25;;;;;;;15.48;11.18;;;;;;;;;;4812261;29;20065;-74
2021/12/18 06:30:53;;;;;;;16.55;12.70;;;;;;;;;;4791447;29;20134;-74
2021/12/18 06:33:21;;;;;;;15.75;11.70;;;;;;;;;;4831934;23;20077;-72
2021/12/18 06:35:48;;;;;;;15.95;12.23;;;;;;;;;;4833058;29;20042;-71
2021/12/18 06:38:16;;;;;;;17.70;12.85;;;;;;;;;;4837697;29;20050;-72
2021/12/18 06:40:43;;;;;;;14.68;11.27;;;;;;;;;;4814851;29;20051;-72
2021/12/18 06:43:11;;;;;;;13.90;11.38;;;;;;;;;;4803766;29;20067;-71
2021/12/18 06:45:38;;;;;;;15.98;10.90;;;;;;;;;;4815544;29;20449;-73
2021/12/18 06:48:06;;;;;;;17.38;12.50;;;;;;;;;;4806855;29;20423;-73
2021/12/18 06:50:34;;;;;;;19.30;13.40;;;;;;;;;;4805774;29;20469;-73
2021/12/18 06:53:02;;;;;;;19.00;12.15;;;;;;;;;;4812143;29;20099;-72
2021/12/18 06:55:30;;;;;;;18.60;12.35;;;;;;;;;;4820116;29;20112;-72
2021/12/18 06:57:57;;;;;;;18.20;13.95;;;;;;;;;;4819064;29;20104;-72
2021/12/18 07:00:25;;;;;;;15.65;12.52;;;;;;;;;;4810697;29;20469;-72
2021/12/18 07:02:53;;;;;;;18.52;13.45;;;;;;;;;;4819841;29;20108;-72
2021/12/18 07:05:21;;;;;;;17.30;13.30;;;;;;;;;;4816624;29;20512;-71
2021/12/18 07:07:50;;;;;;;15.77;12.65;;;;;;;;;;4805282;29;20235;-72
2021/12/18 07:10:18;;;;;;;18.75;13.80;;;;;;;;;;4801040;29;20142;-73
2021/12/18 07:12:45;;;;;;;18.08;12.55;;;;;;;;;;4801243;29;20074;-73
2021/12/18 07:15:13;;;;;;;14.52;10.63;;;;;;;;;;4799865;29;20432;-73
2021/12/18 07:17:41;;;;;;;18.77;13.25;;;;;;;;;;4800229;29;20547;-73
2021/12/18 07:20:09;;;;;;;17.17;12.40;;;;;;;;;;4800611;29;20416;-72
2021/12/18 07:22:37;;;;;;;20.77;15.55;;;;;;;;;;4796451;29;20054;-73
2021/12/18 07:25:05;;;;;;;20.80;15.68;;;;;;;;;;4801002;29;20497;-73
2021/12/18 07:27:32;;;;;;;17.98;13.50;;;;;;;;;;4800892;29;20138;-72
2021/12/18 07:30:00;;;;;;;20.27;14.25;;;;;;;;;;4798296;29;20054;-72
2021/12/18 07:32:28;;;;;;;16.95;13.13;;;;;;;;;;4811341;29;20039;-72
2021/12/18 07:34:56;;;;;;;15.80;12.50;;;;;;;;;;4801624;29;20095;-73
2021/12/18 07:37:24;;;;;;;17.52;12.27;;;;;;;;;;4805717;29;20499;-73
2021/12/18 07:39:53;;;;;;;16.00;13.05;;;;;;;;;;4796528;29;20156;-73
2021/12/18 07:42:20;;;;;;;17.73;13.38;;;;;;;;;;4811282;29;20099;-73
2021/12/18 07:44:48;;;;;;;17.63;13.93;;;;;;;;;;4801966;29;20095;-73
2021/12/18 07:47:16;;;;;;;17.40;13.32;;;;;;;;;;4798963;29;20123;-73
2021/12/18 07:49:43;;;;;;;15.82;12.45;;;;;;;;;;4805041;29;20264;-72
2021/12/18 07:52:12;;;;;;;19.25;15.43;;;;;;;;;;4799352;29;20138;-73
2021/12/18 07:54:39;;;;;;;21.92;16.67;;;;;;;;;;4793106;29;20077;-73
2021/12/18 07:57:07;;;;;;;21.88;16.30;;;;;;;;;;4798316;29;20475;-73
2021/12/18 07:59:35;;;;;;;19.73;14.80;;;;;;;;;;4795271;29;20035;-73
2021/12/18 08:02:04;;;;;;;19.42;13.75;;;;;;;;;;4815023;29;20125;-73
2021/12/18 08:04:32;;;;;;;18.10;13.95;;;;;;;;;;4818934;29;20567;-73
2021/12/18 08:07:01;;;;;;;17.77;14.32;;;;;;;;;;4804362;29;20058;-72
2021/12/18 08:09:29;;;;;;;19.27;15.07;;;;;;;;;;4800430;29;20141;-73
2021/12/18 08:11:56;;;;;;;19.50;13.75;;;;;;;;;;4801494;29;20099;-72
2021/12/18 08:14:23;;;;;;;15.27;12.35;;;;;;;;;;4803729;29;20418;-73
2021/12/18 08:16:51;;;;;;;14.50;12.43;;;;;;;;;;4796262;29;20131;-72
2021/12/18 08:19:18;;;;;;;16.13;12.45;;;;;;;;;;4801360;29;20307;-74
2021/12/18 08:21:46;;;;;;;15.75;12.43;;;;;;;;;;4811673;29;20046;-73
2021/12/18 08:24:13;;;;;;;17.00;12.75;;;;;;;;;;4809987;29;20108;-72
2021/12/18 08:26:41;;;;;;;15.32;12.15;;;;;;;;;;4797040;29;20076;-74
2021/12/18 08:29:08;;;;;;;16.45;12.30;;;;;;;;;;4803606;29;20051;-74
2021/12/18 08:31:36;;;;;;;16.45;13.05;;;;;;;;;;4832688;29;20148;-72
2021/12/18 08:34:03;;;;;;;18.70;14.68;;;;;;;;;;4802112;29;20134;-74
2021/12/18 08:36:31;;;;;;;18.20;14.52;;;;;;;;;;4804007;29;20123;-73
2021/12/18 08:38:58;;;;;;;13.15;11.48;;;;;;;;;;4805397;29;20047;-72
2021/12/18 08:41:27;;;;;;;17.83;13.02;;;;;;;;;;4816392;29;20103;-73
2021/12/18 08:43:54;;;;;;;16.52;12.20;;;;;;;;;;4803216;29;20146;-73
2021/12/18 08:46:22;;;;;;;15.57;12.18;;;;;;;;;;4799550;29;20415;-73
2021/12/18 08:48:50;;;;;;;16.20;11.90;;;;;;;;;;4800126;29;20059;-73
2021/12/18 08:51:17;;;;;;;16.52;12.00;;;;;;;;;;4802810;29;20122;-71
2021/12/18 08:53:45;;;;;;;17.02;13.02;;;;;;;;;;4831421;29;20073;-72
2021/12/18 08:56:12;;;;;;;15.70;12.45;;;;;;;;;;4813569;29;20503;-73
2021/12/18 08:58:39;;;;;;;12.88;11.23;;;;;;;;;;4814218;29;20360;-71
2021/12/18 09:01:07;;;;;;;15.25;11.60;;;;;;;;;;4810256;29;20526;-72
2021/12/18 09:03:35;;;;;;;18.05;12.32;;;;;;;;;;4801702;29;20066;-73
2021/12/18 09:06:03;;;;;;;15.65;12.60;;;;;;;;;;4799890;29;20103;-72
2021/12/18 09:08:30;;;;;;;14.95;11.15;;;;;;;;;;4799709;29;20137;-72
2021/12/18 09:10:57;;;;;;;14.35;11.63;;;;;;;;;;4799516;29;20067;-73
2021/12/18 09:13:25;;;;;;;15.75;12.85;;;;;;;;;;4800970;29;20127;-74
2021/12/18 09:15:52;;;;;;;15.05;12.25;;;;;;;;;;4799550;29;20108;-72
2021/12/18 09:18:20;;;;;;;14.93;12.60;;;;;;;;;;4813713;29;20042;-72
2021/12/18 09:20:47;;;;;;;17.52;12.85;;;;;;;;;;4804904;29;20107;-73
2021/12/18 09:23:17;;;;;;;15.68;12.25;;;;;;;;;;4806416;29;20064;-73
2021/12/18 09:25:45;;;;;;;17.33;13.00;;;;;;;;;;4805211;29;20072;-74
2021/12/18 09:28:13;;;;;;;16.05;13.27;;;;;;;;;;4803898;29;20043;-73
2021/12/18 09:30:40;;;;;;;16.73;12.90;;;;;;;;;;4786859;29;20066;-73
2021/12/18 09:33:11;;;;;;;15.43;13.05;;;;;;;;;;4802229;29;20070;-73
2021/12/18 09:35:39;;;;;;;16.50;12.93;;;;;;;;;;4815248;29;20043;-73
2021/12/18 09:38:06;;;;;;;19.80;13.02;;;;;;;;;;4829546;29;20479;-73
2021/12/18 09:40:34;;;;;;;18.08;14.10;;;;;;;;;;4803210;29;20457;-73
2021/12/18 09:43:02;;;;;;;20.80;13.52;;;;;;;;;;4805745;29;20146;-73
2021/12/18 09:45:29;;;;;;;17.13;13.98;;;;;;;;;;4802969;29;20081;-73
2021/12/18 09:47:57;;;;;;;17.92;13.30;;;;;;;;;;4797341;29;20138;-72
2021/12/18 09:50:26;;;;;;;16.80;13.98;;;;;;;;;;4803586;29;20122;-73
2021/12/18 09:52:54;;;;;;;19.02;13.88;;;;;;;;;;4807785;29;20127;-72
2021/12/18 09:55:21;;;;;;;16.60;13.32;;;;;;;;;;4805226;29;20228;-72
2021/12/18 09:57:49;;;;;;;17.23;13.15;;;;;;;;;;4803363;29;20054;-72
2021/12/18 10:00:23;;;;;;;17.58;13.40;;;;;;;;;;4807941;29;20587;-73
2021/12/18 10:02:50;;;;;;;19.80;14.32;;;;;;;;;;4804517;29;20133;-73
2021/12/18 10:05:23;;;;;;;20.48;13.60;;;;;;;;;;4804212;29;20051;-72
2021/12/18 10:08:08;;;;;;;16.63;13.15;;;;;;;;;;4814546;29;20046;-72
2021/12/18 10:10:36;;;;;;;18.75;13.45;;;;;;;;;;4798380;29;20070;-73
2021/12/18 10:13:10;;;;;;;19.05;13.77;;;;;;;;;;4831414;29;20310;-73
2021/12/18 10:15:38;;;;;;;18.58;13.73;;;;;;;;;;4833089;29;20484;-72
2021/12/18 10:18:07;;;;;;;21.70;14.65;;;;;;;;;;4803982;29;20050;-72
2021/12/18 10:20:35;;;;;;;18.15;13.93;;;;;;;;;;4807154;29;20038;-73
2021/12/18 10:23:05;;;;;;;20.73;13.77;;;;;;;;;;4806859;29;20042;-74
2021/12/18 10:25:38;;;;;;;21.35;14.52;;;;;;;;;;4803030;29;20767;-73
2021/12/18 10:28:14;;;;;;;23.60;15.25;;;;;;;;;;4785914;29;20047;-72
2021/12/18 10:30:52;;;;;;;21.58;15.05;;;;;;;;;;4783663;29;20071;-72
2021/12/18 10:33:19;;;;;;;23.08;15.30;;;;;;;;;;4782560;29;20100;-72
2021/12/18 10:35:54;;;;;;;19.10;13.38;;;;;;;;;;4763017;29;20445;-73
2021/12/18 10:38:39;;;;;;;20.67;13.32;;;;;;;;;;4779073;29;20068;-72
2021/12/18 10:41:18;;;;;;;20.17;14.38;;;;;;;;;;4783901;29;20046;-72
2021/12/18 10:43:56;;;;;;;21.00;14.38;;;;;;;;;;4761225;29;20134;-73
2021/12/18 10:46:24;;;;;;;20.48;13.63;;;;;;;;;;4785600;29;20053;-73
2021/12/18 10:48:55;;;;;;;18.25;13.48;;;;;;;;;;4780278;29;20504;-73
2021/12/18 10:51:23;;;;;;;19.17;13.80;;;;;;;;;;4782597;29;20396;-73
2021/12/18 10:53:52;;;;;;;18.73;13.05;;;;;;;;;;4766963;29;20525;-73
2021/12/18 10:56:31;;;;;;;18.58;12.93;;;;;;;;;;4796224;29;20100;-72
2021/12/18 10:58:59;;;;;;;18.77;12.90;;;;;;;;;;4793400;29;20071;-73
2021/12/18 11:01:26;;;;;;;20.52;13.95;;;;;;;;;;4801920;29;20047;-73
2021/12/18 11:03:53;;;;;;;18.27;12.73;;;;;;;;;;4804981;29;20035;-73
2021/12/18 11:06:23;;;;;;;18.27;12.15;;;;;;;;;;4786704;29;20149;-73
2021/12/18 11:08:53;;;;;;;17.90;12.85;;;;;;;;;;4808294;29;20307;-73
2021/12/18 11:14:05;;;;;;;20.02;12.98;;;;;;;;;;4807286;29;20092;-72
2021/12/18 11:16:35;;;;;;;19.08;13.02;;;;;;;;;;4803129;29;20047;-70
2021/12/18 11:19:04;;;;;;;18.77;12.25;;;;;;;;;;4802983;29;20107;-72
2021/12/18 11:21:33;;;;;;;16.83;12.02;;;;;;;;;;4801777;29;20047;-72
2021/12/18 11:24:04;;;;;;;16.42;11.40;;;;;;;;;;4816436;29;20465;-72
2021/12/18 11:26:35;;;;;;;13.65;12.02;;;;;;;;;;4806055;29;20059;-73
2021/12/18 11:29:04;;;;;;;13.43;11.60;;;;;;;;;;4815009;29;20504;-73
2021/12/18 11:31:32;;;;;;;12.55;10.20;;;;;;;;;;4807171;29;20051;-71
2021/12/18 11:34:01;;;;;;;18.50;10.88;;;;;;;;;;4831663;29;20096;-73
2021/12/18 11:36:29;;;;;;;14.70;10.40;;;;;;;;;;4801979;29;20055;-74
2021/12/18 11:38:58;;;;;;;15.05;10.68;;;;;;;;;;4807852;29;20129;-73
2021/12/18 11:41:26;;;;;;;13.20;10.60;;;;;;;;;;4796843;29;20095;-73
2021/12/18 11:43:53;;;;;;;15.10;11.73;;;;;;;;;;4788637;29;20054;-73
2021/12/18 11:46:37;;;;;;;13.80;11.32;;;;;;;;;;4808725;29;20390;-73
2021/12/18 11:49:05;;;;;;;14.75;11.18;;;;;;;;;;4803202;29;20111;-73
2021/12/18 11:51:33;;;;;;;17.40;10.93;;;;;;;;;;4808025;29;20070;-73
2021/12/18 11:54:05;;;;;;;15.57;11.77;;;;;;;;;;4801399;29;20417;-72
2021/12/18 11:56:32;;;;;;;;;;;;;;;;;;4813091;29;20137;-72
2021/12/18 11:59:00;;;;;;;13.48;10.57;;;;;;;;;;4803603;29;19932;-72
2021/12/18 12:01:30;;;;;;;17.55;12.10;;;;;;;;;;4802382;29;20146;-71
2021/12/18 12:03:59;;;;;;;13.25;10.82;;;;;;;;;;4802596;29;20047;-72
2021/12/18 12:06:30;;;;;;;15.18;10.10;;;;;;;;;;4812632;29;20050;-73
2021/12/18 12:09:23;;;;;;;14.52;10.30;;;;;;;;;;4823382;29;20055;-71
2021/12/18 12:11:55;;;;;;;19.75;9.77;;;;;;;;;;4799542;29;20046;-73
2021/12/18 12:14:23;;;;;;;10.73;9.30;;;;;;;;;;4805022;29;20085;-73
2021/12/18 12:16:51;;;;;;;12.68;10.50;;;;;;;;;;4809162;29;20070;-73
2021/12/18 12:19:19;;;;;;;22.25;10.45;;;;;;;;;;4799283;29;20078;-72
2021/12/18 12:21:47;;;;;;;12.55;10.63;;;;;;;;;;4811158;29;20058;-74
2021/12/18 12:24:19;;;;;;;13.68;10.73;;;;;;;;;;4807389;29;20054;-74
2021/12/18 12:26:47;;;;;;;17.42;9.98;;;;;;;;;;4799760;29;20047;-74
2021/12/18 12:29:15;;;;;;;16.58;12.75;;;;;;;;;;4803155;29;20435;-73
2021/12/18 12:31:55;;;;;;;11.95;10.38;;;;;;;;;;4800381;29;20047;-74
2021/12/18 12:34:27;;;;;;;17.40;11.25;;;;;;;;;;4804823;29;20120;-73
2021/12/18 12:36:58;;;;;;;12.45;10.70;;;;;;;;;;4797266;29;20050;-74
2021/12/18 12:39:26;;;;;;;13.05;10.45;;;;;;;;;;4802678;29;20050;-74
2021/12/18 12:42:08;;;;;;;13.48;10.77;;;;;;;;;;4793639;29;20051;-72
2021/12/18 12:44:40;;;;;;;12.77;10.05;;;;;;;;;;4830873;29;20051;-73
2021/12/18 12:47:15;;;;;;;12.70;10.07;;;;;;;;;;4810564;29;20581;-73
2021/12/18 12:49:44;;;;;;;15.18;10.68;;;;;;;;;;4809240;29;20061;-73
2021/12/18 12:52:15;;;;;;;18.33;10.52;;;;;;;;;;4804328;29;20676;-72
2021/12/18 12:55:03;;;;;;;12.48;10.18;;;;;;;;;;4805323;29;20050;-73
2021/12/18 12:57:30;;;;;;;16.02;10.48;;;;;;;;;;4800909;29;20134;-73
2021/12/18 13:00:00;;;;;;;16.27;10.25;;;;;;;;;;4800054;29;20161;-73
2021/12/18 13:02:33;;;;;;;16.92;10.35;;;;;;;;;;4803442;29;20066;-72
2021/12/18 13:05:01;;;;;;;12.75;11.07;;;;;;;;;;4803875;29;20194;-72
2021/12/18 13:07:29;;;;;;;15.20;10.40;;;;;;;;;;4813314;29;20119;-72
2021/12/18 13:09:56;;;;;;;27.05;24.17;;;;;;;;;;4804840;29;20039;-73
2021/12/18 13:12:24;;;;;;;14.90;12.82;;;;;;;;;;4816106;29;20069;-73
2021/12/18 13:14:54;;;;;;;14.38;10.20;;;;;;;;;;4813232;29;20445;-72
2021/12/18 13:17:23;;;;;;;13.23;10.63;;;;;;;;;;4805758;29;20441;-73
2021/12/18 13:19:58;;;;;;;10.55;9.45;;;;;;;;;;4811390;29;20043;-72
2021/12/18 13:22:31;;;;;;;11.70;9.70;;;;;;;;;;4837741;29;20468;-72
2021/12/18 13:25:01;;;;;;;13.80;10.65;;;;;;;;;;4828761;29;20052;-72
2021/12/18 13:27:29;;;;;;;10.55;9.45;;;;;;;;;;4823742;29;20043;-73
2021/12/18 13:30:29;;;;;;;13.65;10.55;;;;;;;;;;4850438;29;20051;-72
2021/12/18 13:33:00;;;;;;;10.60;9.00;;;;;;;;;;4783686;30;20051;-73
2021/12/18 13:35:29;;;;;;;11.45;10.02;;;;;;;;;;4786281;29;20055;-73
2021/12/18 13:38:14;;;;;;;10.93;9.82;;;;;;;;;;4802767;29;20070;-71
2021/12/18 13:40:46;;;;;;;13.68;10.65;;;;;;;;;;4801153;29;20078;-73
2021/12/18 13:43:14;;;;;;;11.65;10.45;;;;;;;;;;4786725;30;20107;-71
2021/12/18 13:45:50;;;;;;;12.68;10.52;;;;;;;;;;4792839;29;20100;-73
2021/12/18 13:48:19;;;;;;;12.75;10.68;;;;;;;;;;4784180;30;20074;-73
2021/12/18 13:50:57;;;;;;;15.40;11.98;;;;;;;;;;4787908;29;20562;-74
2021/12/18 13:53:25;;;;;;;13.50;11.18;;;;;;;;;;4778548;30;20055;-74
2021/12/18 13:55:57;;;;;;;13.32;10.70;;;;;;;;;;4783481;30;20051;-73
2021/12/18 13:58:29;;;;;;;12.40;10.70;;;;;;;;;;4754498;30;20074;-74
2021/12/18 14:01:00;;;;;;;12.90;11.50;;;;;;;;;;4774543;29;20079;-73
2021/12/18 14:03:40;;;;;;;15.25;11.88;;;;;;;;;;4784014;29;20120;-73
2021/12/18 14:06:19;;;;;;;17.90;10.60;;;;;;;;;;4777693;30;20054;-74
2021/12/18 14:09:16;;;;;;;17.80;11.13;;;;;;;;;;4788518;29;20074;-74
2021/12/18 14:12:02;;;;;;;14.07;11.15;;;;;;;;;;4816480;29;20127;-73
2021/12/18 14:14:34;;;;;;;15.45;11.00;;;;;;;;;;4804571;29;20062;-73
2021/12/18 14:17:01;;;;;;;;;;;;;;;;;;4820012;29;20050;-73
2021/12/18 14:19:30;;;;;;;14.07;10.50;;;;;;;;;;4813584;29;20532;-72
2021/12/18 14:21:58;;;;;;;14.15;10.02;;;;;;;;;;4813746;29;20050;-72
2021/12/18 14:24:26;;;;;;;14.77;11.00;;;;;;;;;;4806319;29;20137;-73
2021/12/18 14:26:59;;;;;;;13.70;10.15;;;;;;;;;;4819667;29;20062;-74
2021/12/18 14:29:29;;;;;;;16.67;10.65;;;;;;;;;;4813676;29;20122;-74
2021/12/18 14:31:57;;;;;;;18.63;11.98;;;;;;;;;;4818967;29;20050;-72
2021/12/18 14:34:29;;;;;;;22.52;11.27;;;;;;;;;;4819510;29;20546;-73
2021/12/18 14:37:04;;;;;;;17.10;12.25;;;;;;;;;;4818996;29;20054;-72
2021/12/18 14:39:44;;;;;;;14.18;10.88;;;;;;;;;;4792776;29;20054;-73
2021/12/18 14:42:15;;;;;;;12.65;10.13;;;;;;;;;;4797720;29;20139;-73
2021/12/18 14:44:52;;;;;;;11.57;10.37;;;;;;;;;;4800413;29;20051;-73
2021/12/18 14:47:22;;;;;;;13.45;10.93;;;;;;;;;;4815128;29;20304;-73
2021/12/18 14:50:06;;;;;;;16.98;10.95;;;;;;;;;;4805961;29;20055;-72
2021/12/18 14:52:48;;;;;;;13.60;11.27;;;;;;;;;;4810514;29;20070;-72
2021/12/18 14:55:19;;;;;;;14.02;12.05;;;;;;;;;;4778677;29;20051;-73
2021/12/18 14:58:06;;;;;;;17.10;12.00;;;;;;;;;;4797469;29;20309;-73
2021/12/18 15:00:33;;;;;;;11.55;10.13;;;;;;;;;;4816845;29;20184;-73
2021/12/18 15:03:07;;;;;;;14.57;10.98;;;;;;;;;;4801595;29;20122;-71
2021/12/18 15:05:44;;;;;;;13.65;11.15;;;;;;;;;;4826467;29;20095;-72
2021/12/18 15:11:14;;;;;;;12.65;10.45;;;;;;;;;;3973011;27;20050;-82
2021/12/18 15:13:43;;;;;;;18.63;14.00;;;;;;;;;;4779649;29;20415;-82
2021/12/18 15:16:12;;;;;;;16.65;13.30;;;;;;;;;;4800035;29;20079;-81
2021/12/18 15:18:41;;;;;;;18.60;13.75;;;;;;;;;;4810634;29;20066;-82
2021/12/18 15:21:11;;;;;;;19.40;14.20;;;;;;;;;;4791615;29;20597;-82
2021/12/18 15:23:39;;;;;;;15.43;12.15;;;;;;;;;;4791502;29;20063;-82
2021/12/18 15:26:07;;;;;;;15.82;12.43;;;;;;;;;;4792590;29;20933;-82
2021/12/18 15:28:35;;;;;;;14.80;11.80;;;;;;;;;;4804062;29;20170;-83
2021/12/18 15:31:04;;;;;;;14.23;11.82;;;;;;;;;;4777835;29;20470;-83
2021/12/18 15:33:33;;;;;;;15.88;11.73;;;;;;;;;;4810923;29;20054;-84
2021/12/18 15:36:03;;;;;;;20.25;12.77;;;;;;;;;;4799466;29;20051;-82